sensor_id;sensor_type;location;lat;lon;timestamp;pressure;altitude;pressure_sealevel;temperature;humidity
86143;BME280;76799;50.146;22.704;2024-02-23T00:02:24;98063.13;;;9.54;72.89
86143;BME280;76799;50.146;22.704;2024-02-23T00:04:50;98064.13;;;9.53;72.83
86143;BME280;76799;50.146;22.704;2024-02-23T00:07:15;98058.22;;;9.51;72.82
86143;BME280;76799;50.146;22.704;2024-02-23T00:09:40;98054.16;;;9.48;72.88
86143;BME280;76799;50.146;22.704;2024-02-23T00:12:06;98058.59;;;9.48;72.96
86143;BME280;76799;50.146;22.704;2024-02-23T00:14:33;98050.06;;;9.46;73.38
86143;BME280;76799;50.146;22.704;2024-02-23T00:17:01;98052.91;;;9.44;73.26
86143;BME280;76799;50.146;22.704;2024-02-23T00:19:27;98051.69;;;9.47;72.80
86143;BME280;76799;50.146;22.704;2024-02-23T00:21:52;98054.97;;;9.49;72.08
86143;BME280;76799;50.146;22.704;2024-02-23T00:24:18;98059.84;;;9.52;72.16
86143;BME280;76799;50.146;22.704;2024-02-23T00:26:46;98050.53;;;9.56;71.86
86143;BME280;76799;50.146;22.704;2024-02-23T00:29:11;98037.50;;;9.54;71.94
86143;BME280;76799;50.146;22.704;2024-02-23T00:31:40;98031.41;;;9.54;71.82
86143;BME280;76799;50.146;22.704;2024-02-23T00:34:06;98024.09;;;9.56;71.76
86143;BME280;76799;50.146;22.704;2024-02-23T00:36:41;98023.69;;;9.52;71.78
86143;BME280;76799;50.146;22.704;2024-02-23T00:39:08;98017.84;;;9.63;70.74
86143;BME280;76799;50.146;22.704;2024-02-23T00:41:36;98016.59;;;9.66;70.98
86143;BME280;76799;50.146;22.704;2024-02-23T00:44:05;98009.28;;;9.68;70.86
86143;BME280;76799;50.146;22.704;2024-02-23T00:46:30;98008.69;;;9.66;70.61
86143;BME280;76799;50.146;22.704;2024-02-23T00:48:56;98011.13;;;9.67;70.70
86143;BME280;76799;50.146;22.704;2024-02-23T00:51:21;98008.69;;;9.66;70.53
86143;BME280;76799;50.146;22.704;2024-02-23T00:53:47;98005.63;;;9.69;70.51
86143;BME280;76799;50.146;22.704;2024-02-23T00:56:13;98012.38;;;9.71;70.25
86143;BME280;76799;50.146;22.704;2024-02-23T00:58:39;98006.25;;;9.71;70.23
86143;BME280;76799;50.146;22.704;2024-02-23T01:01:04;98002.59;;;9.72;69.94
86143;BME280;76799;50.146;22.704;2024-02-23T01:03:30;98008.91;;;9.71;70.19
86143;BME280;76799;50.146;22.704;2024-02-23T01:05:55;98009.09;;;9.69;70.19
86143;BME280;76799;50.146;22.704;2024-02-23T01:08:21;97997.53;;;9.70;69.98
86143;BME280;76799;50.146;22.704;2024-02-23T01:10:46;97991.22;;;9.71;69.91
86143;BME280;76799;50.146;22.704;2024-02-23T01:13:11;97990.00;;;9.74;69.76
86143;BME280;76799;50.146;22.704;2024-02-23T01:15:37;97990.44;;;9.77;69.47
86143;BME280;76799;50.146;22.704;2024-02-23T01:18:03;97998.53;;;9.76;69.74
86143;BME280;76799;50.146;22.704;2024-02-23T01:20:29;97995.72;;;9.77;69.86
86143;BME280;76799;50.146;22.704;2024-02-23T01:22:54;97996.13;;;9.81;69.42
86143;BME280;76799;50.146;22.704;2024-02-23T01:25:19;97989.81;;;9.82;69.42
86143;BME280;76799;50.146;22.704;2024-02-23T01:27:45;97990.44;;;9.84;69.24
86143;BME280;76799;50.146;22.704;2024-02-23T01:30:11;97995.72;;;9.84;69.20
86143;BME280;76799;50.146;22.704;2024-02-23T01:32:36;97992.91;;;9.85;69.07
86143;BME280;76799;50.146;22.704;2024-02-23T01:35:04;97990.06;;;9.93;68.56
86143;BME280;76799;50.146;22.704;2024-02-23T01:37:30;97979.09;;;9.96;68.39
86143;BME280;76799;50.146;22.704;2024-02-23T01:39:55;97980.09;;;9.95;68.40
86143;BME280;76799;50.146;22.704;2024-02-23T01:42:21;97983.94;;;9.93;68.23
86143;BME280;76799;50.146;22.704;2024-02-23T01:44:47;97990.25;;;9.92;68.59
86143;BME280;76799;50.146;22.704;2024-02-23T01:47:12;97990.03;;;9.87;68.73
86143;BME280;76799;50.146;22.704;2024-02-23T01:49:38;97990.03;;;9.87;68.92
86143;BME280;76799;50.146;22.704;2024-02-23T01:52:04;97989.47;;;9.91;68.36
86143;BME280;76799;50.146;22.704;2024-02-23T01:54:30;97986.38;;;9.88;68.82
86143;BME280;76799;50.146;22.704;2024-02-23T01:56:57;97981.31;;;9.86;68.88
86143;BME280;76799;50.146;22.704;2024-02-23T01:59:23;97974.16;;;9.87;68.59
86143;BME280;76799;50.146;22.704;2024-02-23T02:01:50;97982.09;;;9.87;68.88
86143;BME280;76799;50.146;22.704;2024-02-23T02:04:16;97980.69;;;9.84;69.04
86143;BME280;76799;50.146;22.704;2024-02-23T02:06:41;97979.06;;;9.90;68.40
86143;BME280;76799;50.146;22.704;2024-02-23T02:09:07;97981.31;;;9.86;68.67
86143;BME280;76799;50.146;22.704;2024-02-23T02:11:32;97979.47;;;9.87;68.64
86143;BME280;76799;50.146;22.704;2024-02-23T02:13:58;97982.50;;;9.84;68.90
86143;BME280;76799;50.146;22.704;2024-02-23T02:16:23;97986.78;;;9.85;68.73
86143;BME280;76799;50.146;22.704;2024-02-23T02:18:49;97984.34;;;9.83;68.76
86143;BME280;76799;50.146;22.704;2024-02-23T02:21:14;97987.19;;;9.82;69.22
86143;BME280;76799;50.146;22.704;2024-02-23T02:23:39;97987.19;;;9.82;68.81
86143;BME280;76799;50.146;22.704;2024-02-23T02:26:05;97994.50;;;9.80;69.09
86143;BME280;76799;50.146;22.704;2024-02-23T02:28:31;97996.56;;;9.84;68.40
86143;BME280;76799;50.146;22.704;2024-02-23T02:30:56;97998.38;;;9.84;68.68
86143;BME280;76799;50.146;22.704;2024-02-23T02:33:22;97992.47;;;9.82;69.33
86143;BME280;76799;50.146;22.704;2024-02-23T02:35:48;97978.22;;;9.83;69.43
86143;BME280;76799;50.146;22.704;2024-02-23T02:38:15;97982.31;;;9.92;68.93
86143;BME280;76799;50.146;22.704;2024-02-23T02:40:40;97978.88;;;9.91;68.60
86143;BME280;76799;50.146;22.704;2024-02-23T02:43:06;97981.69;;;9.90;68.86
86143;BME280;76799;50.146;22.704;2024-02-23T02:45:32;97978.44;;;9.88;68.96
86143;BME280;76799;50.146;22.704;2024-02-23T02:47:59;97982.72;;;9.89;68.90
86143;BME280;76799;50.146;22.704;2024-02-23T02:50:25;97982.94;;;9.94;68.31
86143;BME280;76799;50.146;22.704;2024-02-23T02:52:50;97986.19;;;9.96;68.01
86143;BME280;76799;50.146;22.704;2024-02-23T02:55:15;97977.47;;;9.95;67.80
86143;BME280;76799;50.146;22.704;2024-02-23T02:57:41;97971.56;;;10.00;67.87
86143;BME280;76799;50.146;22.704;2024-02-23T03:00:10;97974.19;;;10.00;67.70
86143;BME280;76799;50.146;22.704;2024-02-23T03:02:35;97982.38;;;10.05;67.42
86143;BME280;76799;50.146;22.704;2024-02-23T03:05:01;97980.34;;;10.07;67.59
86143;BME280;76799;50.146;22.704;2024-02-23T03:07:26;97973.22;;;10.01;68.05
86143;BME280;76799;50.146;22.704;2024-02-23T03:09:52;97980.50;;;9.99;67.79
86143;BME280;76799;50.146;22.704;2024-02-23T03:12:17;97976.22;;;9.98;67.87
86143;BME280;76799;50.146;22.704;2024-02-23T03:14:43;97975.44;;;9.97;67.82
86143;BME280;76799;50.146;22.704;2024-02-23T03:17:09;97976.22;;;9.98;67.76
86143;BME280;76799;50.146;22.704;2024-02-23T03:19:35;97970.94;;;9.98;67.86
86143;BME280;76799;50.146;22.704;2024-02-23T03:22:01;97969.78;;;10.07;68.04
86143;BME280;76799;50.146;22.704;2024-02-23T03:24:27;97973.84;;;10.03;68.29
86143;BME280;76799;50.146;22.704;2024-02-23T03:26:52;97980.34;;;10.00;69.10
86143;BME280;76799;50.146;22.704;2024-02-23T03:29:17;97969.31;;;9.97;69.02
86143;BME280;76799;50.146;22.704;2024-02-23T03:31:43;97972.16;;;9.95;68.65
86143;BME280;76799;50.146;22.704;2024-02-23T03:34:08;97982.75;;;9.95;68.69
86143;BME280;76799;50.146;22.704;2024-02-23T03:36:34;97981.53;;;9.91;69.19
86143;BME280;76799;50.146;22.704;2024-02-23T03:39:00;97982.31;;;9.92;68.46
86143;BME280;76799;50.146;22.704;2024-02-23T03:41:26;97983.56;;;9.89;68.70
86143;BME280;76799;50.146;22.704;2024-02-23T03:43:51;97996.16;;;9.94;68.16
86143;BME280;76799;50.146;22.704;2024-02-23T03:46:17;97992.91;;;9.92;68.45
86143;BME280;76799;50.146;22.704;2024-02-23T03:48:43;98001.44;;;9.94;68.18
86143;BME280;76799;50.146;22.704;2024-02-23T03:51:09;97999.03;;;9.99;67.21
86143;BME280;76799;50.146;22.704;2024-02-23T03:53:35;97997.84;;;10.01;67.44
86143;BME280;76799;50.146;22.704;2024-02-23T03:56:00;97984.22;;;10.11;66.67
86143;BME280;76799;50.146;22.704;2024-02-23T03:58:26;97992.56;;;10.08;66.77
86143;BME280;76799;50.146;22.704;2024-02-23T04:00:51;97998.47;;;10.10;66.62
86143;BME280;76799;50.146;22.704;2024-02-23T04:03:17;97994.19;;;10.09;66.45
86143;BME280;76799;50.146;22.704;2024-02-23T04:05:42;97990.94;;;10.07;66.95
86143;BME280;76799;50.146;22.704;2024-02-23T04:08:07;97994.59;;;10.06;66.47
86143;BME280;76799;50.146;22.704;2024-02-23T04:10:33;97999.50;;;10.09;66.87
86143;BME280;76799;50.146;22.704;2024-02-23T04:12:59;97993.59;;;10.07;66.95
86143;BME280;76799;50.146;22.704;2024-02-23T04:15:24;97989.53;;;10.11;66.36
86143;BME280;76799;50.146;22.704;2024-02-23T04:17:50;97996.25;;;10.13;66.33
86143;BME280;76799;50.146;22.704;2024-02-23T04:20:15;97998.47;;;10.10;66.83
86143;BME280;76799;50.146;22.704;2024-02-23T04:22:40;97999.69;;;10.07;67.22
86143;BME280;76799;50.146;22.704;2024-02-23T04:25:06;97994.38;;;10.01;67.76
86143;BME280;76799;50.146;22.704;2024-02-23T04:27:32;97999.50;;;10.09;67.12
86143;BME280;76799;50.146;22.704;2024-02-23T04:29:57;97997.84;;;10.08;67.01
86143;BME280;76799;50.146;22.704;2024-02-23T04:32:22;97992.16;;;10.11;67.26
86143;BME280;76799;50.146;22.704;2024-02-23T04:34:48;97994.59;;;10.06;67.11
86143;BME280;76799;50.146;22.704;2024-02-23T04:37:14;97996.22;;;10.07;67.21
86143;BME280;76799;50.146;22.704;2024-02-23T04:39:39;97999.50;;;10.09;66.51
86143;BME280;76799;50.146;22.704;2024-02-23T04:42:07;97989.31;;;10.06;67.08
86143;BME280;76799;50.146;22.704;2024-02-23T04:44:34;97992.97;;;10.05;67.31
86143;BME280;76799;50.146;22.704;2024-02-23T04:46:59;97988.91;;;10.02;67.03
86143;BME280;76799;50.146;22.704;2024-02-23T04:49:25;97993.72;;;9.99;67.51
86143;BME280;76799;50.146;22.704;2024-02-23T04:51:50;97990.47;;;9.97;67.43
86143;BME280;76799;50.146;22.704;2024-02-23T04:54:16;97998.41;;;9.97;67.85
86143;BME280;76799;50.146;22.704;2024-02-23T04:56:41;98006.13;;;9.92;68.07
86143;BME280;76799;50.146;22.704;2024-02-23T04:59:07;98006.13;;;9.85;68.22
86143;BME280;76799;50.146;22.704;2024-02-23T05:01:36;97998.59;;;9.89;68.04
86143;BME280;76799;50.146;22.704;2024-02-23T05:04:02;98005.50;;;9.90;67.93
86143;BME280;76799;50.146;22.704;2024-02-23T05:06:28;98005.91;;;9.87;68.14
86143;BME280;76799;50.146;22.704;2024-02-23T05:08:54;98002.66;;;9.85;68.05
86143;BME280;76799;50.146;22.704;2024-02-23T05:11:19;98006.91;;;9.86;68.37
86143;BME280;76799;50.146;22.704;2024-02-23T05:13:45;98022.56;;;9.81;68.42
86143;BME280;76799;50.146;22.704;2024-02-23T05:16:10;98019.31;;;9.79;68.64
86143;BME280;76799;50.146;22.704;2024-02-23T05:18:38;98020.53;;;9.83;68.16
86143;BME280;76799;50.146;22.704;2024-02-23T05:21:04;98008.75;;;9.85;68.37
86143;BME280;76799;50.146;22.704;2024-02-23T05:23:30;98023.41;;;9.81;68.40
86143;BME280;76799;50.146;22.704;2024-02-23T05:25:55;98023.41;;;9.81;68.18
86143;BME280;76799;50.146;22.704;2024-02-23T05:28:21;98023.56;;;9.80;68.54
86143;BME280;76799;50.146;22.704;2024-02-23T05:30:46;98027.84;;;9.81;68.62
86143;BME280;76799;50.146;22.704;2024-02-23T05:33:11;98028.47;;;9.83;68.43
86143;BME280;76799;50.146;22.704;2024-02-23T05:35:37;98038.03;;;9.77;68.74
86143;BME280;76799;50.146;22.704;2024-02-23T05:38:02;98032.75;;;9.77;68.65
86143;BME280;76799;50.146;22.704;2024-02-23T05:40:28;98040.06;;;9.75;68.92
86143;BME280;76799;50.146;22.704;2024-02-23T05:42:53;98046.16;;;9.76;68.81
86143;BME280;76799;50.146;22.704;2024-02-23T05:45:20;98051.44;;;9.76;68.71
86143;BME280;76799;50.146;22.704;2024-02-23T05:47:45;98046.53;;;9.73;69.13
86143;BME280;76799;50.146;22.704;2024-02-23T05:50:10;98057.50;;;9.70;69.82
86143;BME280;76799;50.146;22.704;2024-02-23T05:52:36;98056.88;;;9.68;69.71
86143;BME280;76799;50.146;22.704;2024-02-23T05:55:03;98054.69;;;9.71;69.16
86143;BME280;76799;50.146;22.704;2024-02-23T05:57:31;98061.38;;;9.74;69.46
86143;BME280;76799;50.146;22.704;2024-02-23T05:59:57;98067.69;;;9.73;69.52
86143;BME280;76799;50.146;22.704;2024-02-23T06:02:22;98053.47;;;9.74;69.30
86143;BME280;76799;50.146;22.704;2024-02-23T06:04:48;98061.78;;;9.71;69.90
86143;BME280;76799;50.146;22.704;2024-02-23T06:07:13;98063.41;;;9.72;70.10
86143;BME280;76799;50.146;22.704;2024-02-23T06:09:42;98070.09;;;9.68;70.57
86143;BME280;76799;50.146;22.704;2024-02-23T06:12:08;98061.56;;;9.66;70.85
86143;BME280;76799;50.146;22.704;2024-02-23T06:14:34;98065.84;;;9.67;71.21
86143;BME280;76799;50.146;22.704;2024-02-23T06:17:00;98072.53;;;9.63;71.80
86143;BME280;76799;50.146;22.704;2024-02-23T06:19:25;98074.38;;;9.62;71.92
86143;BME280;76799;50.146;22.704;2024-02-23T06:21:51;98084.31;;;9.60;72.43
86143;BME280;76799;50.146;22.704;2024-02-23T06:24:16;98078.81;;;9.55;73.13
86143;BME280;76799;50.146;22.704;2024-02-23T06:26:42;98084.66;;;9.51;73.74
86143;BME280;76799;50.146;22.704;2024-02-23T06:29:08;98085.03;;;9.48;74.09
86143;BME280;76799;50.146;22.704;2024-02-23T06:31:38;98091.16;;;9.48;74.17
86143;BME280;76799;50.146;22.704;2024-02-23T06:34:04;98092.75;;;9.43;74.52
86143;BME280;76799;50.146;22.704;2024-02-23T06:36:30;98094.38;;;9.44;74.70
86143;BME280;76799;50.146;22.704;2024-02-23T06:38:55;98095.38;;;9.43;74.69
86143;BME280;76799;50.146;22.704;2024-02-23T06:41:20;98099.25;;;9.40;75.53
86143;BME280;76799;50.146;22.704;2024-02-23T06:43:46;98102.91;;;9.39;75.80
86143;BME280;76799;50.146;22.704;2024-02-23T06:46:11;98104.09;;;9.37;76.61
86143;BME280;76799;50.146;22.704;2024-02-23T06:48:38;98109.75;;;9.34;77.30
86143;BME280;76799;50.146;22.704;2024-02-23T06:51:04;98108.13;;;9.33;76.63
86143;BME280;76799;50.146;22.704;2024-02-23T06:53:30;98126.00;;;9.31;77.33
86143;BME280;76799;50.146;22.704;2024-02-23T06:55:56;98123.09;;;9.26;78.56
86143;BME280;76799;50.146;22.704;2024-02-23T06:58:21;98116.25;;;9.31;78.53
86143;BME280;76799;50.146;22.704;2024-02-23T07:00:47;98115.81;;;9.28;78.44
86143;BME280;76799;50.146;22.704;2024-02-23T07:03:13;98120.09;;;9.29;77.80
86143;BME280;76799;50.146;22.704;2024-02-23T07:05:40;98126.75;;;9.25;78.48
86143;BME280;76799;50.146;22.704;2024-02-23T07:08:07;98133.28;;;9.29;78.09
86143;BME280;76799;50.146;22.704;2024-02-23T07:10:33;98140.22;;;9.30;78.39
86143;BME280;76799;50.146;22.704;2024-02-23T07:12:58;98139.03;;;9.32;78.74
86143;BME280;76799;50.146;22.704;2024-02-23T07:15:23;98147.19;;;9.37;77.86
86143;BME280;76799;50.146;22.704;2024-02-23T07:17:49;98146.38;;;9.37;78.87
86143;BME280;76799;50.146;22.704;2024-02-23T07:20:15;98152.09;;;9.40;78.61
86143;BME280;76799;50.146;22.704;2024-02-23T07:22:46;98148.38;;;9.35;79.59
86143;BME280;76799;50.146;22.704;2024-02-23T07:25:15;98156.53;;;9.33;79.16
86143;BME280;76799;50.146;22.704;2024-02-23T07:27:41;98156.28;;;9.28;80.08
86143;BME280;76799;50.146;22.704;2024-02-23T07:30:07;98158.91;;;9.28;79.90
86143;BME280;76799;50.146;22.704;2024-02-23T07:32:32;98165.38;;;9.26;81.12
86143;BME280;76799;50.146;22.704;2024-02-23T07:34:58;98167.78;;;9.21;80.90
86143;BME280;76799;50.146;22.704;2024-02-23T07:37:26;98172.81;;;9.16;81.48
86143;BME280;76799;50.146;22.704;2024-02-23T07:39:51;98172.91;;;9.22;80.75
86143;BME280;76799;50.146;22.704;2024-02-23T07:42:17;98184.84;;;9.18;81.84
86143;BME280;76799;50.146;22.704;2024-02-23T07:44:44;98187.66;;;9.17;81.56
86143;BME280;76799;50.146;22.704;2024-02-23T07:47:09;98184.84;;;9.18;81.81
86143;BME280;76799;50.146;22.704;2024-02-23T07:49:35;98190.56;;;9.22;81.18
86143;BME280;76799;50.146;22.704;2024-02-23T07:52:00;98199.88;;;9.18;81.92
86143;BME280;76799;50.146;22.704;2024-02-23T07:54:25;98202.88;;;9.15;82.79
86143;BME280;76799;50.146;22.704;2024-02-23T07:56:51;98204.28;;;9.11;82.67
86143;BME280;76799;50.146;22.704;2024-02-23T07:59:16;98206.50;;;9.07;83.17
86143;BME280;76799;50.146;22.704;2024-02-23T08:01:42;98203.00;;;9.07;83.32
86143;BME280;76799;50.146;22.704;2024-02-23T08:04:07;98211.94;;;9.06;83.67
86143;BME280;76799;50.146;22.704;2024-02-23T08:06:32;98214.59;;;9.06;84.62
86143;BME280;76799;50.146;22.704;2024-02-23T08:08:58;98216.44;;;9.05;84.48
86143;BME280;76799;50.146;22.704;2024-02-23T08:11:23;98216.84;;;9.09;84.57
86143;BME280;76799;50.146;22.704;2024-02-23T08:13:49;98220.50;;;9.08;84.75
86143;BME280;76799;50.146;22.704;2024-02-23T08:16:16;98219.69;;;9.07;84.79
86143;BME280;76799;50.146;22.704;2024-02-23T08:18:42;98226.63;;;9.08;84.97
86143;BME280;76799;50.146;22.704;2024-02-23T08:21:07;98222.97;;;9.09;84.90
86143;BME280;76799;50.146;22.704;2024-02-23T08:23:34;98214.84;;;9.11;85.36
86143;BME280;76799;50.146;22.704;2024-02-23T08:26:00;98221.72;;;9.05;86.33
86143;BME280;76799;50.146;22.704;2024-02-23T08:28:25;98230.44;;;9.06;86.60
86143;BME280;76799;50.146;22.704;2024-02-23T08:30:51;98220.50;;;9.08;85.90
86143;BME280;76799;50.146;22.704;2024-02-23T08:33:17;98227.41;;;9.09;86.12
86143;BME280;76799;50.146;22.704;2024-02-23T08:35:43;98229.44;;;9.07;85.72
86143;BME280;76799;50.146;22.704;2024-02-23T08:38:08;98224.97;;;9.07;85.66
86143;BME280;76799;50.146;22.704;2024-02-23T08:40:34;98233.72;;;9.08;86.35
86143;BME280;76799;50.146;22.704;2024-02-23T08:43:00;98229.44;;;9.07;86.79
86143;BME280;76799;50.146;22.704;2024-02-23T08:45:25;98230.91;;;9.09;86.86
86143;BME280;76799;50.146;22.704;2024-02-23T08:47:50;98241.63;;;9.08;86.17
86143;BME280;76799;50.146;22.704;2024-02-23T08:50:16;98235.97;;;9.11;86.93
86143;BME280;76799;50.146;22.704;2024-02-23T08:52:41;98241.34;;;9.17;86.49
86143;BME280;76799;50.146;22.704;2024-02-23T08:55:07;98234.97;;;9.12;87.08
86143;BME280;76799;50.146;22.704;2024-02-23T08:57:32;98231.31;;;9.13;87.40
86143;BME280;76799;50.146;22.704;2024-02-23T08:59:58;98236.44;;;9.14;87.84
86143;BME280;76799;50.146;22.704;2024-02-23T09:02:26;98241.34;;;9.17;87.49
86143;BME280;76799;50.146;22.704;2024-02-23T09:04:52;98242.97;;;9.18;87.60
86143;BME280;76799;50.146;22.704;2024-02-23T09:07:17;98242.38;;;9.23;87.21
86143;BME280;76799;50.146;22.704;2024-02-23T09:09:46;98241.38;;;9.24;88.53
86143;BME280;76799;50.146;22.704;2024-02-23T09:12:12;98245.50;;;9.26;88.94
86143;BME280;76799;50.146;22.704;2024-02-23T09:14:39;98242.91;;;9.33;87.42
86143;BME280;76799;50.146;22.704;2024-02-23T09:17:06;98239.69;;;9.37;87.46
86143;BME280;76799;50.146;22.704;2024-02-23T09:19:33;98237.69;;;9.39;88.18
86143;BME280;76799;50.146;22.704;2024-02-23T09:21:59;98229.16;;;9.44;87.66
86143;BME280;76799;50.146;22.704;2024-02-23T09:24:25;98233.06;;;9.48;87.17
86143;BME280;76799;50.146;22.704;2024-02-23T09:26:50;98235.72;;;9.48;87.68
86143;BME280;76799;50.146;22.704;2024-02-23T09:29:16;98236.72;;;9.47;88.58
86143;BME280;76799;50.146;22.704;2024-02-23T09:31:41;98235.97;;;9.53;87.25
86143;BME280;76799;50.146;22.704;2024-02-23T09:34:07;98233.75;;;9.56;87.83
86143;BME280;76799;50.146;22.704;2024-02-23T09:36:32;98243.13;;;9.59;86.78
86143;BME280;76799;50.146;22.704;2024-02-23T09:38:58;98235.19;;;9.59;87.35
86143;BME280;76799;50.146;22.704;2024-02-23T09:41:23;98235.19;;;9.59;87.46
86143;BME280;76799;50.146;22.704;2024-02-23T09:43:49;98242.13;;;9.60;86.87
86143;BME280;76799;50.146;22.704;2024-02-23T09:46:16;98255.59;;;9.65;87.61
86143;BME280;76799;50.146;22.704;2024-02-23T09:48:43;98247.03;;;9.63;87.18
86143;BME280;76799;50.146;22.704;2024-02-23T09:51:13;98246.47;;;9.67;86.55
86143;BME280;76799;50.146;22.704;2024-02-23T09:53:41;98248.28;;;9.67;87.44
86143;BME280;76799;50.146;22.704;2024-02-23T09:56:08;98248.09;;;9.68;86.62
86143;BME280;76799;50.146;22.704;2024-02-23T09:58:35;98244.44;;;9.69;86.48
86143;BME280;76799;50.146;22.704;2024-02-23T10:01:02;98248.91;;;9.69;86.47
86143;BME280;76799;50.146;22.704;2024-02-23T10:03:29;98251.78;;;9.74;85.94
86143;BME280;76799;50.146;22.704;2024-02-23T10:05:58;98255.69;;;9.78;86.30
86143;BME280;76799;50.146;22.704;2024-02-23T10:08:28;98251.41;;;9.77;85.17
86143;BME280;76799;50.146;22.704;2024-02-23T10:10:54;98251.41;;;9.77;85.63
86143;BME280;76799;50.146;22.704;2024-02-23T10:13:21;98252.41;;;9.76;85.81
86143;BME280;76799;50.146;22.704;2024-02-23T10:15:47;98255.94;;;9.83;85.51
86143;BME280;76799;50.146;22.704;2024-02-23T10:18:13;98244.72;;;9.81;84.71
86143;BME280;76799;50.146;22.704;2024-02-23T10:20:39;98247.81;;;9.84;84.93
86143;BME280;76799;50.146;22.704;2024-02-23T10:23:05;98252.50;;;9.89;85.20
86143;BME280;76799;50.146;22.704;2024-02-23T10:25:33;98243.19;;;9.93;85.55
86143;BME280;76799;50.146;22.704;2024-02-23T10:27:58;98247.91;;;9.97;86.04
86143;BME280;76799;50.146;22.704;2024-02-23T10:30:26;98252.63;;;10.02;84.66
86143;BME280;76799;50.146;22.704;2024-02-23T10:32:55;98246.16;;;10.04;83.79
86143;BME280;76799;50.146;22.704;2024-02-23T10:35:22;98242.91;;;10.09;84.12
86143;BME280;76799;50.146;22.704;2024-02-23T10:37:48;98245.78;;;10.14;83.43
86143;BME280;76799;50.146;22.704;2024-02-23T10:40:19;98248.28;;;10.22;83.44
86143;BME280;76799;50.146;22.704;2024-02-23T10:42:46;98251.16;;;10.26;81.96
86143;BME280;76799;50.146;22.704;2024-02-23T10:45:21;98251.56;;;10.30;81.48
86143;BME280;76799;50.146;22.704;2024-02-23T10:47:53;98251.41;;;10.31;80.13
86143;BME280;76799;50.146;22.704;2024-02-23T10:50:21;98259.34;;;10.31;81.03
86143;BME280;76799;50.146;22.704;2024-02-23T10:52:48;98258.94;;;10.34;80.71
86143;BME280;76799;50.146;22.704;2024-02-23T10:55:14;98255.91;;;10.37;80.53
86143;BME280;76799;50.146;22.704;2024-02-23T10:57:39;98257.56;;;10.38;79.28
86143;BME280;76799;50.146;22.704;2024-02-23T11:00:07;98258.16;;;10.40;79.37
86143;BME280;76799;50.146;22.704;2024-02-23T11:02:38;98269.16;;;10.37;79.40
86143;BME280;76799;50.146;22.704;2024-02-23T11:05:06;98265.72;;;10.43;78.45
86143;BME280;76799;50.146;22.704;2024-02-23T11:07:38;98268.31;;;10.37;78.45
86143;BME280;76799;50.146;22.704;2024-02-23T11:10:04;98278.72;;;10.38;78.70
86143;BME280;76799;50.146;22.704;2024-02-23T11:12:30;98268.75;;;10.40;78.61
86143;BME280;76799;50.146;22.704;2024-02-23T11:14:59;98274.84;;;10.34;78.72
86143;BME280;76799;50.146;22.704;2024-02-23T11:17:33;98284.59;;;10.34;78.37
86143;BME280;76799;50.146;22.704;2024-02-23T11:20:03;98276.47;;;10.35;78.17
86143;BME280;76799;50.146;22.704;2024-02-23T11:22:35;98282.53;;;10.29;78.24
86143;BME280;76799;50.146;22.704;2024-02-23T11:25:05;98280.69;;;10.30;78.29
86143;BME280;76799;50.146;22.704;2024-02-23T11:27:32;98278.25;;;10.28;78.00
86143;BME280;76799;50.146;22.704;2024-02-23T11:29:59;98282.72;;;10.28;77.83
86143;BME280;76799;50.146;22.704;2024-02-23T11:32:37;98278.66;;;10.32;77.86
86143;BME280;76799;50.146;22.704;2024-02-23T11:35:03;98287.00;;;10.29;78.35
86143;BME280;76799;50.146;22.704;2024-02-23T11:37:30;98284.56;;;10.27;78.33
86143;BME280;76799;50.146;22.704;2024-02-23T11:39:56;98282.69;;;10.22;78.66
86143;BME280;76799;50.146;22.704;2024-02-23T11:42:23;98287.78;;;10.23;78.81
86143;BME280;76799;50.146;22.704;2024-02-23T11:44:50;98294.28;;;10.21;78.45
86143;BME280;76799;50.146;22.704;2024-02-23T11:47:15;98301.59;;;10.19;78.92
86143;BME280;76799;50.146;22.704;2024-02-23T11:49:42;98300.19;;;10.16;78.65
86143;BME280;76799;50.146;22.704;2024-02-23T11:52:07;98305.25;;;10.18;78.32
86143;BME280;76799;50.146;22.704;2024-02-23T11:54:33;98302.00;;;10.16;78.55
86143;BME280;76799;50.146;22.704;2024-02-23T11:56:59;98299.34;;;10.16;78.93
86143;BME280;76799;50.146;22.704;2024-02-23T11:59:25;98300.19;;;10.16;78.32
86143;BME280;76799;50.146;22.704;2024-02-23T12:01:51;98302.81;;;10.16;79.04
86143;BME280;76799;50.146;22.704;2024-02-23T12:04:16;98306.47;;;10.15;78.59
86143;BME280;76799;50.146;22.704;2024-02-23T12:06:42;98309.53;;;10.12;79.05
86143;BME280;76799;50.146;22.704;2024-02-23T12:09:08;98307.50;;;10.14;78.54
86143;BME280;76799;50.146;22.704;2024-02-23T12:11:34;98302.38;;;10.13;78.52
86143;BME280;76799;50.146;22.704;2024-02-23T12:14:00;98311.94;;;10.14;78.51
86143;BME280;76799;50.146;22.704;2024-02-23T12:16:27;98310.94;;;10.15;78.60
86143;BME280;76799;50.146;22.704;2024-02-23T12:18:56;98317.88;;;10.16;78.48
86143;BME280;76799;50.146;22.704;2024-02-23T12:21:23;98314.59;;;10.14;78.63
86143;BME280;76799;50.146;22.704;2024-02-23T12:23:49;98318.25;;;10.13;78.29
86143;BME280;76799;50.146;22.704;2024-02-23T12:26:17;98320.28;;;10.11;78.47
86143;BME280;76799;50.146;22.704;2024-02-23T12:28:43;98322.91;;;10.11;78.17
86143;BME280;76799;50.146;22.704;2024-02-23T12:31:09;98322.75;;;10.12;78.05
86143;BME280;76799;50.146;22.704;2024-02-23T12:33:36;98322.91;;;10.11;78.41
86143;BME280;76799;50.146;22.704;2024-02-23T12:36:03;98322.13;;;10.10;78.53
86143;BME280;76799;50.146;22.704;2024-02-23T12:38:29;98319.66;;;10.09;78.35
86143;BME280;76799;50.146;22.704;2024-02-23T12:40:55;98311.16;;;10.13;78.29
86143;BME280;76799;50.146;22.704;2024-02-23T12:43:20;98308.50;;;10.13;78.54
86143;BME280;76799;50.146;22.704;2024-02-23T12:45:47;98304.25;;;10.19;78.03
86143;BME280;76799;50.146;22.704;2024-02-23T12:48:16;98307.13;;;10.23;77.77
86143;BME280;76799;50.146;22.704;2024-02-23T12:50:43;98313.22;;;10.24;78.19
86143;BME280;76799;50.146;22.704;2024-02-23T12:53:10;98311.41;;;10.24;77.80